Tinsdal — V2AJ2 — position and weather

sailwx.info

Track history (hours):
 
Tides and Currents Weather Stations Pressure Air Temp Water Temp Dewpoint Dewpoint Depression Visibility Wind Speed Wind Dir Waves Ship Positions

Tinsdal

Last reported at 2016-May-20 19:33 UTC. Time now 2016-May-25 03:25 UTC.
Position N 35°59' W 005°31'.

Length 90 m; draft 5.2 m.

Type: Cargo ship. MMSI: 305573000.

Date/timePositionNaut miles runAvg speedWind from/ knotsBaromVisibWave heightAir tempDewpointWater temp
2016-May-20 19:33N 35°59' W 005°31'7 6.9
2016-May-20 18:33N 36°00' W 005°23'235 9.3
2016-May-19 17:24N 37°23' W 000°49'8 9.6
2016-May-19 16:32N 37°29' W 000°41'9 9.6
2016-May-19 15:33N 37°35' W 000°32'9 9.4
2016-May-19 14:33N 37°43' W 000°26'10 9.5
2016-May-19 13:31N 37°51' W 000°19'14010.0
2016-May-18 23:29N 39°59' E 000°56'9 9.6
2016-May-18 22:33N 40°07' E 000°60'10 9.6
2016-May-18 21:33N 40°17' E 001°02'10 9.6
2016-May-18 20:33N 40°26' E 001°04'10 9.5
2016-May-18 19:33N 40°36' E 001°06'22 9.7
2016-May-18 17:15N 40°57' E 001°11'8 9.6
2016-May-18 16:22N 41°06' E 001°13'16 1.0
2016-May-18 00:27N 40°58' E 001°32'0 0.4
2016-May-17 23:21N 40°58' E 001°31'5 3.6
2016-May-17 22:04N 40°58' E 001°38'2 3.8
2016-May-17 21:33N 40°58' E 001°40'8 6.6
2016-May-17 20:16N 41°00' E 001°51'8 8.4
2016-May-17 19:19N 41°05' E 001°59'18 0.9
2016-May-17 00:07N 41°22' E 002°10'0 0.0
2016-May-16 23:31N 41°22' E 002°10'0 0.0
2016-May-16 21:19N 41°22' E 002°10'0 0.0
2016-May-16 19:25N 41°22' E 002°10'0 0.0
2016-May-16 18:31N 41°22' E 002°10'0 0.0
2016-May-16 17:25N 41°22' E 002°10'0 0.0
2016-May-16 02:19N 41°22' E 002°10'0 0.0
2016-May-15 23:31N 41°22' E 002°10'0 0.0
2016-May-15 22:31N 41°22' E 002°10'0 0.0
2016-May-15 21:31N 41°22' E 002°10'0 0.0
2016-May-15 19:25N 41°22' E 002°10'0 0.0
2016-May-14 13:28N 41°22' E 002°10'2 2.0
2016-May-14 12:32N 41°20' E 002°11'0 0.0
2016-May-14 04:24N 41°20' E 002°11'16 0.7
2016-May-13 06:33N 41°12' E 002°29'1010.1
2016-May-13 05:33N 41°09' E 002°41'10 9.8
2016-May-13 04:33N 41°04' E 002°53'10 9.6
2016-May-13 03:33N 40°59' E 003°04'9 9.1
2016-May-13 02:33N 40°55' E 003°14'9 9.0
2016-May-13 01:33N 40°51' E 003°25'275 8.8
2016-May-11 18:29N 38°41' E 008°40'  
Track history (hours):
 
Tides and Currents Weather Stations Pressure Air Temp Water Temp Dewpoint Dewpoint Depression Visibility Wind Speed Wind Dir Waves Ship Positions

Tinsdal

Last reported at 2016-May-20 19:33 UTC. Time now 2016-May-25 03:25 UTC.
Position N 35°59' W 005°31'.

Length 90 m; draft 5.2 m.

Type: Cargo ship. MMSI: 305573000.

Date/timePositionNaut miles runAvg speedWind from/ knotsBaromVisibWave heightAir tempDewpointWater temp
2016-May-20 19:33N 35°59' W 005°31'7 6.9
2016-May-20 18:33N 36°00' W 005°23'235 9.3
2016-May-19 17:24N 37°23' W 000°49'8 9.6
2016-May-19 16:32N 37°29' W 000°41'9 9.6
2016-May-19 15:33N 37°35' W 000°32'9 9.4
2016-May-19 14:33N 37°43' W 000°26'10 9.5
2016-May-19 13:31N 37°51' W 000°19'14010.0
2016-May-18 23:29N 39°59' E 000°56'9 9.6
2016-May-18 22:33N 40°07' E 000°60'10 9.6
2016-May-18 21:33N 40°17' E 001°02'10 9.6
2016-May-18 20:33N 40°26' E 001°04'10 9.5
2016-May-18 19:33N 40°36' E 001°06'22 9.7
2016-May-18 17:15N 40°57' E 001°11'8 9.6
2016-May-18 16:22N 41°06' E 001°13'16 1.0
2016-May-18 00:27N 40°58' E 001°32'0 0.4
2016-May-17 23:21N 40°58' E 001°31'5 3.6
2016-May-17 22:04N 40°58' E 001°38'2 3.8
2016-May-17 21:33N 40°58' E 001°40'8 6.6
2016-May-17 20:16N 41°00' E 001°51'8 8.4
2016-May-17 19:19N 41°05' E 001°59'18 0.9
2016-May-17 00:07N 41°22' E 002°10'0 0.0
2016-May-16 23:31N 41°22' E 002°10'0 0.0
2016-May-16 21:19N 41°22' E 002°10'0 0.0
2016-May-16 19:25N 41°22' E 002°10'0 0.0
2016-May-16 18:31N 41°22' E 002°10'0 0.0
2016-May-16 17:25N 41°22' E 002°10'0 0.0
2016-May-16 02:19N 41°22' E 002°10'0 0.0
2016-May-15 23:31N 41°22' E 002°10'0 0.0
2016-May-15 22:31N 41°22' E 002°10'0 0.0
2016-May-15 21:31N 41°22' E 002°10'0 0.0
2016-May-15 19:25N 41°22' E 002°10'0 0.0
2016-May-14 13:28N 41°22' E 002°10'2 2.0
2016-May-14 12:32N 41°20' E 002°11'0 0.0
2016-May-14 04:24N 41°20' E 002°11'16 0.7
2016-May-13 06:33N 41°12' E 002°29'1010.1
2016-May-13 05:33N 41°09' E 002°41'10 9.8
2016-May-13 04:33N 41°04' E 002°53'10 9.6
2016-May-13 03:33N 40°59' E 003°04'9 9.1
2016-May-13 02:33N 40°55' E 003°14'9 9.0
2016-May-13 01:33N 40°51' E 003°25'275 8.8
2016-May-11 18:29N 38°41' E 008°40'  

Dump ship's entire track history